createdAt,value
2023-05-14T00:02:47.168Z,5.63
2023-05-14T00:06:49.853Z,6.17
2023-05-14T00:10:53.931Z,9.03
2023-05-14T00:14:56.975Z,7.83
2023-05-14T00:18:59.967Z,8.37
2023-05-14T00:23:02.649Z,7.10
2023-05-14T00:27:07.568Z,5.77
2023-05-14T00:31:10.262Z,5.77
2023-05-14T00:35:12.937Z,5.27
2023-05-14T00:39:15.616Z,5.20
2023-05-14T00:43:20.878Z,5.60
2023-05-14T00:47:23.560Z,5.93
2023-05-14T00:51:26.404Z,5.93
2023-05-14T00:55:31.179Z,6.63
2023-05-14T00:59:35.927Z,6.63
2023-05-14T01:03:39.253Z,6.70
2023-05-14T01:07:50.070Z,6.37
2023-05-14T01:11:59.789Z,6.47
2023-05-14T01:16:05.173Z,6.80
2023-05-14T01:20:09.538Z,6.20
2023-05-14T01:24:13.587Z,5.97
2023-05-14T01:28:18.949Z,6.43
2023-05-14T01:32:24.494Z,6.20
2023-05-14T01:36:28.785Z,6.07
2023-05-14T01:40:33.893Z,6.67
2023-05-14T01:44:36.687Z,7.03
2023-05-14T01:48:39.334Z,6.87
2023-05-14T01:52:42.006Z,6.97
2023-05-14T01:56:46.072Z,6.43
2023-05-14T02:00:48.751Z,6.30
2023-05-14T02:04:51.733Z,6.33
2023-05-14T02:08:54.392Z,5.83
2023-05-14T02:12:58.432Z,7.30
2023-05-14T02:17:01.081Z,7.37
2023-05-14T02:21:03.786Z,6.00
2023-05-14T02:25:07.420Z,5.53
2023-05-14T02:29:11.994Z,5.40
2023-05-14T02:33:14.734Z,5.30
2023-05-14T02:37:17.725Z,5.83
2023-05-14T02:41:21.439Z,5.07
2023-05-14T02:45:25.585Z,5.03
2023-05-14T02:49:28.534Z,5.40
2023-05-14T02:53:31.206Z,6.03
2023-05-14T02:57:34.003Z,6.13
2023-05-14T03:01:38.275Z,5.40
2023-05-14T03:05:41.519Z,5.63
2023-05-14T03:09:44.421Z,5.67
2023-05-14T03:13:47.580Z,6.27
2023-05-14T03:17:51.848Z,6.63
2023-05-14T03:21:54.614Z,5.97
2023-05-14T03:25:57.501Z,6.23
2023-05-14T03:30:00.763Z,5.93
2023-05-14T03:34:05.051Z,5.10
2023-05-14T03:38:07.763Z,6.00
2023-05-14T03:42:10.675Z,5.83
2023-05-14T03:46:13.335Z,5.90
2023-05-14T03:50:17.543Z,5.40
2023-05-14T03:54:20.210Z,7.20
2023-05-14T03:58:22.894Z,5.70
2023-05-14T04:02:26.017Z,5.23
2023-05-14T04:06:30.137Z,5.20
2023-05-14T04:10:33.126Z,5.37
2023-05-14T04:14:36.033Z,5.50
2023-05-14T04:18:38.658Z,5.80
2023-05-14T04:22:42.634Z,5.60
2023-05-14T04:26:45.468Z,5.53
2023-05-14T04:30:49.415Z,5.90
2023-05-14T04:34:52.145Z,6.23
2023-05-14T04:38:56.902Z,6.30
2023-05-14T04:42:59.579Z,5.80
2023-05-14T04:47:02.711Z,7.00
2023-05-14T04:51:07.115Z,6.00
2023-05-14T04:55:11.580Z,6.40
2023-05-14T04:59:14.591Z,5.73
2023-05-14T05:03:17.697Z,5.87
2023-05-14T05:07:20.542Z,6.07
2023-05-14T05:11:24.832Z,6.03
2023-05-14T05:15:27.526Z,5.70
2023-05-14T05:19:42.427Z,5.80
2023-05-14T05:23:46.415Z,5.63
2023-05-14T05:27:50.633Z,5.83
2023-05-14T05:31:53.392Z,6.27
2023-05-14T05:35:59.287Z,7.57
2023-05-14T05:40:02.222Z,6.83
2023-05-14T05:44:06.460Z,6.87
2023-05-14T05:48:09.165Z,6.53
2023-05-14T05:52:12.107Z,6.77
2023-05-14T05:56:14.738Z,6.40
2023-05-14T06:00:19.753Z,6.27
2023-05-14T06:04:22.449Z,6.70
2023-05-14T06:08:25.402Z,6.17
2023-05-14T06:12:28.391Z,5.70
2023-05-14T06:16:32.493Z,5.97
2023-05-14T06:20:35.338Z,6.57
2023-05-14T06:24:38.133Z,6.00
2023-05-14T06:28:40.839Z,6.43
2023-05-14T06:32:44.846Z,5.73
2023-05-14T06:36:47.530Z,5.77
2023-05-14T06:40:50.219Z,7.07
2023-05-14T06:44:52.890Z,6.60
2023-05-14T06:48:59.194Z,6.00
2023-05-14T06:53:02.681Z,6.33
2023-05-14T06:57:05.637Z,6.83
2023-05-14T07:01:08.818Z,6.33
2023-05-14T07:05:12.900Z,5.97
2023-05-14T07:09:16.780Z,5.90
2023-05-14T07:13:21.877Z,5.40
2023-05-14T07:17:25.042Z,5.53
2023-05-14T07:21:29.149Z,5.23
2023-05-14T07:25:32.660Z,5.13
2023-05-14T07:29:35.713Z,5.20
2023-05-14T07:33:41.450Z,5.40
2023-05-14T07:37:46.089Z,6.20
2023-05-14T07:41:50.107Z,5.37
2023-05-14T07:45:52.848Z,4.80
2023-05-14T07:49:56.278Z,5.13
2023-05-14T07:54:00.614Z,5.13
2023-05-14T07:58:03.350Z,4.80
2023-05-14T08:02:06.322Z,5.07
2023-05-14T08:06:09.604Z,4.87
2023-05-14T08:10:14.736Z,5.10
2023-05-14T08:14:17.377Z,4.90
2023-05-14T08:18:20.037Z,5.10
2023-05-14T08:22:23.180Z,8.00
2023-05-14T08:26:27.185Z,4.73
2023-05-14T08:30:29.979Z,5.30
2023-05-14T08:34:32.650Z,5.77
2023-05-14T08:38:35.288Z,5.30
2023-05-14T08:42:41.735Z,4.80
2023-05-14T08:46:44.748Z,6.00
2023-05-14T08:50:47.850Z,5.70
2023-05-14T08:54:52.021Z,5.87
2023-05-14T08:58:56.576Z,5.60
2023-05-14T09:03:00.431Z,5.53
2023-05-14T09:07:04.020Z,5.70
2023-05-14T09:11:08.762Z,5.93
2023-05-14T09:15:13.036Z,6.23
2023-05-14T09:19:18.818Z,5.43
2023-05-14T09:23:25.062Z,6.17
2023-05-14T09:27:30.920Z,5.03
2023-05-14T09:31:38.130Z,5.60
2023-05-14T09:35:43.263Z,5.53
2023-05-14T09:39:46.248Z,5.50
2023-05-14T09:43:48.908Z,5.57
2023-05-14T09:47:53.388Z,5.47
2023-05-14T09:51:57.805Z,5.73
2023-05-14T09:56:00.589Z,4.90
2023-05-14T10:00:03.755Z,5.30
2023-05-14T10:04:09.258Z,5.40
2023-05-14T10:08:15.781Z,5.27
2023-05-14T10:12:23.662Z,3.10
2023-05-14T10:16:29.653Z,5.50
2023-05-14T10:20:34.084Z,6.40
2023-05-14T10:24:38.736Z,4.43
2023-05-14T10:28:41.578Z,4.40
2023-05-14T10:32:44.618Z,4.37
2023-05-14T10:36:51.018Z,4.43
2023-05-14T10:40:59.058Z,3.90
2023-05-14T10:45:06.198Z,4.63
2023-05-14T10:49:10.119Z,4.20
2023-05-14T10:53:16.106Z,4.57
2023-05-14T10:57:19.400Z,3.80
2023-05-14T11:01:25.181Z,4.17
2023-05-14T11:05:28.178Z,3.83
2023-05-14T11:09:32.527Z,4.07
2023-05-14T11:13:35.332Z,4.13
2023-05-14T11:17:39.526Z,4.10
2023-05-14T11:21:42.516Z,6.37
2023-05-14T11:25:46.900Z,4.70
2023-05-14T11:29:51.246Z,4.40
2023-05-14T11:33:54.297Z,4.33
2023-05-14T11:37:56.937Z,3.97
2023-05-14T11:42:02.071Z,4.00
2023-05-14T11:46:05.364Z,3.67
2023-05-14T11:50:09.732Z,3.97
2023-05-14T11:54:15.064Z,3.53
2023-05-14T11:58:19.197Z,3.90
2023-05-14T12:02:22.877Z,3.40
2023-05-14T12:06:32.026Z,3.47
2023-05-14T12:10:43.221Z,4.80
2023-05-14T12:14:47.549Z,4.90
2023-05-14T12:18:50.682Z,3.60
2023-05-14T12:22:54.489Z,5.00
2023-05-14T12:26:57.428Z,4.03
2023-05-14T12:31:01.494Z,3.57
2023-05-14T12:35:04.609Z,3.73
2023-05-14T12:39:07.360Z,3.40
2023-05-14T12:43:10.288Z,3.30
2023-05-14T12:47:18.057Z,3.43
2023-05-14T12:51:20.923Z,3.40
2023-05-14T12:55:23.583Z,3.10
2023-05-14T12:59:26.247Z,3.00
2023-05-14T13:03:30.541Z,3.50
2023-05-14T13:07:33.188Z,2.93
2023-05-14T13:11:36.107Z,4.87
2023-05-14T13:15:38.966Z,2.63
2023-05-14T13:19:43.251Z,2.77
2023-05-14T13:23:48.746Z,2.77
2023-05-14T13:27:51.751Z,3.07
2023-05-14T13:31:54.604Z,2.93
2023-05-14T13:35:59.633Z,2.83
2023-05-14T13:40:04.327Z,2.80
2023-05-14T13:44:07.087Z,2.60
2023-05-14T13:48:09.822Z,2.23
2023-05-14T13:52:14.085Z,3.00
2023-05-14T13:56:16.823Z,2.70
2023-05-14T14:00:20.060Z,3.00
2023-05-14T14:04:24.282Z,3.17
2023-05-14T14:08:28.652Z,2.27
2023-05-14T14:12:31.435Z,2.80
2023-05-14T14:16:34.241Z,2.60
2023-05-14T14:20:36.947Z,2.50
2023-05-14T14:24:41.376Z,2.77
2023-05-14T14:28:44.436Z,2.43
2023-05-14T14:32:47.559Z,2.53
2023-05-14T14:36:50.253Z,2.97
2023-05-14T14:40:54.344Z,2.87
2023-05-14T14:44:56.991Z,2.60
2023-05-14T14:48:59.767Z,2.90
2023-05-14T14:53:02.678Z,10.03
2023-05-14T14:57:07.051Z,6.87
2023-05-14T15:01:12.677Z,22.07
2023-05-14T15:05:15.576Z,5.47
2023-05-14T15:09:18.212Z,2.47
2023-05-14T15:13:22.460Z,2.97
2023-05-14T15:17:26.494Z,2.53
2023-05-14T15:21:29.576Z,4.00
2023-05-14T15:25:32.622Z,2.97
2023-05-14T15:29:36.746Z,3.00
2023-05-14T15:33:41.406Z,2.63
2023-05-14T15:37:46.492Z,2.93
2023-05-14T15:41:49.449Z,4.40
2023-05-14T15:45:53.826Z,2.77
2023-05-14T15:49:56.568Z,2.87
2023-05-14T15:53:59.317Z,3.10
2023-05-14T15:58:03.233Z,2.80
2023-05-14T16:02:08.252Z,3.30
2023-05-14T16:06:12.246Z,3.00
2023-05-14T16:10:14.986Z,2.90
2023-05-14T16:14:18.443Z,2.73
2023-05-14T16:18:25.164Z,2.57
2023-05-14T16:22:28.995Z,2.90
2023-05-14T16:26:31.707Z,2.77
2023-05-14T16:30:34.674Z,3.23
2023-05-14T16:34:39.092Z,3.20
2023-05-14T16:38:56.852Z,3.20
2023-05-14T16:43:04.762Z,3.23
2023-05-14T16:47:07.694Z,3.03
2023-05-14T16:51:11.856Z,2.70
2023-05-14T16:55:15.473Z,2.83
2023-05-14T16:59:18.556Z,2.93
2023-05-14T17:03:21.328Z,2.97
2023-05-14T17:07:25.644Z,2.60
2023-05-14T17:11:28.358Z,2.57
2023-05-14T17:15:32.560Z,2.70
2023-05-14T17:19:35.336Z,3.03
2023-05-14T17:23:39.420Z,3.00
2023-05-14T17:27:42.092Z,3.00
2023-05-14T17:31:45.169Z,3.20
2023-05-14T17:35:47.973Z,3.70
2023-05-14T17:39:52.361Z,3.03
2023-05-14T17:43:55.074Z,3.20
2023-05-14T17:47:57.793Z,3.57
2023-05-14T17:52:02.110Z,4.10
2023-05-14T17:56:06.520Z,2.93
2023-05-14T18:00:10.200Z,3.00
2023-05-14T18:04:12.993Z,4.20
2023-05-14T18:08:15.806Z,3.17
2023-05-14T18:12:19.846Z,2.73
2023-05-14T18:16:22.691Z,3.17
2023-05-14T18:20:25.711Z,3.73
2023-05-14T18:24:28.434Z,6.53
2023-05-14T18:28:32.814Z,4.20
2023-05-14T18:32:38.157Z,2.90
2023-05-14T18:36:41.023Z,3.43
2023-05-14T18:40:43.692Z,3.43
2023-05-14T18:44:48.135Z,4.90
2023-05-14T18:48:51.601Z,3.60
2023-05-14T18:52:54.527Z,3.87
2023-05-14T18:56:57.213Z,3.63
2023-05-14T19:01:02.697Z,4.60
2023-05-14T19:05:06.200Z,4.77
2023-05-14T19:09:09.585Z,4.83
2023-05-14T19:13:15.866Z,3.77
2023-05-14T19:17:20.721Z,4.17
2023-05-14T19:21:23.634Z,4.10
2023-05-14T19:25:30.716Z,4.17
2023-05-14T19:29:33.777Z,6.00
2023-05-14T19:33:38.033Z,4.37
2023-05-14T19:37:40.819Z,4.37
2023-05-14T19:41:46.405Z,4.50
2023-05-14T19:45:49.569Z,4.87
2023-05-14T19:49:54.055Z,4.73
2023-05-14T19:53:57.392Z,5.00
2023-05-14T19:58:00.322Z,4.10
2023-05-14T20:02:04.643Z,4.30
2023-05-14T20:06:12.330Z,4.43
2023-05-14T20:10:15.769Z,4.50
2023-05-14T20:14:20.381Z,3.93
2023-05-14T20:18:23.178Z,4.30
2023-05-14T20:22:27.221Z,4.97
2023-05-14T20:26:30.016Z,4.83
2023-05-14T20:30:32.764Z,4.33
2023-05-14T20:34:35.477Z,5.13
2023-05-14T20:38:40.701Z,5.70
2023-05-14T20:42:43.491Z,4.90
2023-05-14T20:46:46.440Z,4.90
2023-05-14T20:50:49.537Z,5.10
2023-05-14T20:54:53.584Z,6.10
2023-05-14T20:58:56.486Z,5.10
2023-05-14T21:03:00.092Z,5.03
2023-05-14T21:07:03.844Z,5.53
2023-05-14T21:11:08.174Z,5.33
2023-05-14T21:15:11.837Z,5.93
2023-05-14T21:19:15.445Z,5.07
2023-05-14T21:23:19.467Z,5.60
2023-05-14T21:27:23.773Z,5.67
2023-05-14T21:31:26.670Z,5.90
2023-05-14T21:35:29.691Z,5.83
2023-05-14T21:39:32.350Z,6.37
2023-05-14T21:43:36.547Z,6.60
2023-05-14T21:47:39.698Z,8.23
2023-05-14T21:51:42.727Z,6.27
2023-05-14T21:55:45.954Z,6.13
2023-05-14T21:59:49.955Z,5.20
2023-05-14T22:03:52.992Z,6.00
2023-05-14T22:07:56.366Z,5.63
2023-05-14T22:11:59.241Z,7.37
2023-05-14T22:16:12.287Z,5.80
2023-05-14T22:20:16.345Z,6.47
2023-05-14T22:24:19.363Z,5.73
2023-05-14T22:28:22.343Z,5.40
2023-05-14T22:32:26.778Z,5.90
2023-05-14T22:36:29.489Z,5.93
2023-05-14T22:40:32.386Z,5.83
2023-05-14T22:44:36.503Z,5.33
2023-05-14T22:48:40.563Z,5.40
2023-05-14T22:52:43.237Z,6.13
2023-05-14T22:56:47.094Z,5.07
2023-05-14T23:00:49.856Z,5.90
2023-05-14T23:04:54.076Z,6.50
2023-05-14T23:08:57.179Z,6.00
2023-05-14T23:12:59.828Z,5.60
2023-05-14T23:17:03.102Z,5.27
2023-05-14T23:21:07.217Z,5.80
2023-05-14T23:25:10.927Z,5.53
2023-05-14T23:29:16.008Z,5.07
2023-05-14T23:33:18.971Z,6.10
2023-05-14T23:37:23.393Z,5.27
2023-05-14T23:41:26.096Z,5.60
2023-05-14T23:45:29.304Z,5.70
2023-05-14T23:49:33.455Z,5.93
2023-05-14T23:53:37.685Z,5.77
2023-05-14T23:57:40.917Z,6.10
